Time;durP1;ratioP1;P1;durP2;ratioP2;P2;SDS_P1;SDS_P2;PMS_P1;PMS_P2;Temp;Humidity;BMP_temperature;BMP_pressure;BME280_temperature;BME280_humidity;BME280_pressure;Samples;Min_cycle;Max_cycle;Signal;HPM_P1;HPM_P2
2020/12/25 00:00:36;;;;;;;21.63;10.60;;;3.70;99.90;;;;;;5015480;28;20049;-75
2020/12/25 00:03:03;;;;;;;19.98;9.50;;;3.80;99.90;;;;;;5015516;28;20438;-75
2020/12/25 00:05:29;;;;;;;15.80;9.38;;;3.80;99.90;;;;;;5015995;28;20041;-74
2020/12/25 00:07:55;;;;;;;17.65;9.50;;;3.70;99.90;;;;;;5015257;28;20037;-80
2020/12/25 00:10:21;;;;;;;16.98;7.97;;;3.70;99.90;;;;;;5015239;28;20030;-75
2020/12/25 00:12:47;;;;;;;14.73;8.43;;;3.70;99.90;;;;;;5014045;28;20049;-75
2020/12/25 00:15:14;;;;;;;12.70;7.18;;;3.80;99.90;;;;;;5014490;28;20026;-75
2020/12/25 00:17:40;;;;;;;17.17;7.13;;;3.70;99.90;;;;;;5014984;28;20038;-75
2020/12/25 00:20:06;;;;;;;14.07;7.65;;;3.70;99.90;;;;;;5013728;28;20034;-75
2020/12/25 00:22:32;;;;;;;17.58;7.80;;;3.70;99.90;;;;;;5014411;28;20040;-74
2020/12/25 00:24:59;;;;;;;15.60;7.68;;;3.70;99.90;;;;;;5014528;28;20041;-74
2020/12/25 00:27:25;;;;;;;12.55;6.60;;;3.70;99.90;;;;;;5015163;28;20041;-73
2020/12/25 00:29:51;;;;;;;14.60;7.70;;;3.80;99.90;;;;;;5014752;28;20034;-75
2020/12/25 00:32:18;;;;;;;11.95;7.40;;;3.70;99.90;;;;;;5014411;28;20045;-74
2020/12/25 00:34:44;;;;;;;16.05;8.00;;;3.70;99.90;;;;;;5015054;28;20034;-74
2020/12/25 00:37:10;;;;;;;13.82;8.68;;;3.70;99.90;;;;;;5014549;28;20030;-74
2020/12/25 00:39:39;;;;;;;14.50;7.70;;;3.70;99.90;;;;;;5014635;28;20048;-74
2020/12/25 00:42:05;;;;;;;16.65;8.60;;;3.70;99.90;;;;;;5014133;28;20033;-74
2020/12/25 00:44:31;;;;;;;14.23;8.38;;;3.70;99.90;;;;;;5014590;28;20022;-74
2020/12/25 00:46:57;;;;;;;15.73;8.15;;;3.70;99.90;;;;;;5014035;28;20486;-74
2020/12/25 00:49:24;;;;;;;16.40;9.00;;;3.70;99.90;;;;;;5013940;28;20038;-73
2020/12/25 00:51:50;;;;;;;15.48;7.97;;;3.70;99.90;;;;;;5013478;28;20053;-74
2020/12/25 00:54:19;;;;;;;14.45;8.70;;;3.70;99.90;;;;;;5014024;28;20034;-74
2020/12/25 00:57:02;;;;;;;13.57;7.25;;;3.60;99.90;;;;;;5019838;28;20046;-78
2020/12/25 00:59:39;;;;;;;13.05;7.05;;;3.60;99.90;;;;;;5029670;28;20048;-74
2020/12/25 01:02:06;;;;;;;13.27;7.72;;;3.60;99.90;;;;;;5014010;28;20030;-74
2020/12/25 01:04:32;;;;;;;14.23;7.82;;;3.60;99.90;;;;;;5014283;28;20381;-73
2020/12/25 01:06:59;;;;;;;14.10;7.65;;;3.60;99.90;;;;;;5015209;28;20025;-74
2020/12/25 01:09:25;;;;;;;11.32;7.05;;;3.60;99.90;;;;;;5014600;28;20045;-74
2020/12/25 01:11:51;;;;;;;12.95;7.20;;;3.60;99.90;;;;;;5014407;28;20034;-74
2020/12/25 01:14:17;;;;;;;14.75;8.10;;;3.60;99.90;;;;;;5013756;28;20040;-75
2020/12/25 01:16:43;;;;;;;14.70;8.63;;;3.60;99.90;;;;;;5013692;28;20030;-73
2020/12/25 01:19:10;;;;;;;13.07;8.07;;;3.60;99.90;;;;;;5012362;28;20042;-74
2020/12/25 01:21:36;;;;;;;13.18;7.40;;;3.60;99.90;;;;;;5013662;28;20042;-75
2020/12/25 01:24:02;;;;;;;15.82;7.53;;;3.50;99.90;;;;;;5013645;28;20034;-75
2020/12/25 01:26:28;;;;;;;13.15;7.30;;;3.50;99.90;;;;;;5013743;28;20041;-74
2020/12/25 01:29:02;;;;;;;14.20;7.80;;;3.50;99.90;;;;;;5013966;28;20038;-75
2020/12/25 01:31:28;;;;;;;17.48;8.52;;;3.50;99.90;;;;;;5013801;28;20040;-75
2020/12/25 01:33:54;;;;;;;17.17;8.40;;;3.50;99.90;;;;;;5013778;28;20034;-75
2020/12/25 01:36:20;;;;;;;12.70;7.55;;;3.50;99.90;;;;;;5013435;28;20029;-75
2020/12/25 01:38:47;;;;;;;15.57;8.82;;;3.50;99.90;;;;;;5013801;28;20120;-76
2020/12/25 01:41:13;;;;;;;14.85;8.25;;;3.50;99.90;;;;;;5016565;28;20435;-74
2020/12/25 01:43:39;;;;;;;15.50;8.90;;;3.50;99.90;;;;;;5027038;28;20029;-74
2020/12/25 01:46:05;;;;;;;16.83;9.18;;;3.50;99.90;;;;;;5013149;28;20030;-75
2020/12/25 01:48:33;;;;;;;22.75;10.80;;;3.50;99.90;;;;;;5013231;28;20030;-74
2020/12/25 01:51:00;;;;;;;20.88;10.07;;;3.50;99.90;;;;;;5012918;28;20053;-75
2020/12/25 01:53:28;;;;;;;17.92;8.88;;;3.50;99.90;;;;;;5013114;28;20044;-75
2020/12/25 01:55:56;;;;;;;17.50;9.88;;;3.60;99.90;;;;;;5013121;28;20037;-76
2020/12/25 01:58:23;;;;;;;18.92;10.48;;;3.60;99.90;;;;;;5012902;28;20041;-76
2020/12/25 02:00:51;;;;;;;17.13;9.18;;;3.60;99.90;;;;;;5013227;28;20037;-77
2020/12/25 02:03:18;;;;;;;18.23;10.60;;;3.60;99.90;;;;;;5011560;28;20254;-78
2020/12/25 02:05:45;;;;;;;21.05;10.93;;;3.60;99.90;;;;;;5013292;28;20041;-76
2020/12/25 02:08:13;;;;;;;16.25;9.50;;;3.60;99.90;;;;;;5012762;28;20383;-76
2020/12/25 02:10:40;;;;;;;18.58;9.95;;;3.60;99.90;;;;;;5013073;28;20041;-77
2020/12/25 02:13:07;;;;;;;17.45;10.07;;;3.60;99.90;;;;;;5013067;28;20044;-76
2020/12/25 02:15:35;;;;;;;20.42;10.40;;;3.60;99.90;;;;;;5013007;28;20037;-77
2020/12/25 02:18:02;;;;;;;17.83;10.18;;;3.60;99.90;;;;;;5010780;28;20041;-77
2020/12/25 02:20:29;;;;;;;20.40;10.38;;;3.70;99.90;;;;;;5012802;28;20049;-77
2020/12/25 02:22:55;;;;;;;22.08;12.05;;;3.60;99.90;;;;;;5014903;28;20030;-76
2020/12/25 02:25:21;;;;;;;23.77;11.30;;;3.70;99.90;;;;;;5030126;28;20046;-77
2020/12/25 02:27:47;;;;;;;18.25;11.52;;;3.70;99.90;;;;;;5012933;28;20026;-78
2020/12/25 02:30:17;;;;;;;25.55;12.13;;;3.70;99.90;;;;;;5013034;28;20403;-76
2020/12/25 02:32:43;;;;;;;20.73;11.63;;;3.70;99.90;;;;;;5012778;28;20475;-77
2020/12/25 02:35:09;;;;;;;25.50;12.77;;;3.70;99.90;;;;;;5018396;28;20026;-77
2020/12/25 02:37:35;;;;;;;20.92;12.52;;;3.70;99.90;;;;;;5022446;28;20026;-77
2020/12/25 02:40:02;;;;;;;27.33;13.80;;;3.70;99.90;;;;;;5011895;28;20042;-78
2020/12/25 02:42:28;;;;;;;26.98;13.43;;;3.80;99.90;;;;;;5023612;28;20034;-77
2020/12/25 02:44:54;;;;;;;20.58;12.48;;;3.80;99.90;;;;;;5013356;28;20139;-77
2020/12/25 02:47:20;;;;;;;22.52;13.30;;;3.70;99.90;;;;;;5011888;28;20034;-77
2020/12/25 02:49:47;;;;;;;22.75;12.30;;;3.80;99.90;;;;;;5012289;28;20049;-77
2020/12/25 02:52:13;;;;;;;22.67;13.65;;;3.80;99.90;;;;;;5012248;28;20408;-77
2020/12/25 02:54:39;;;;;;;25.10;14.18;;;3.80;99.90;;;;;;5015727;28;20038;-77
2020/12/25 02:57:05;;;;;;;22.98;13.55;;;3.80;99.90;;;;;;5030755;28;20029;-78
2020/12/25 02:59:31;;;;;;;26.13;12.50;;;3.80;99.90;;;;;;5012780;28;20475;-77
2020/12/25 03:01:57;;;;;;;30.50;15.05;;;3.80;99.90;;;;;;5012859;28;20026;-77
2020/12/25 03:04:24;;;;;;;25.02;13.27;;;3.80;99.90;;;;;;5027518;28;20121;-77
2020/12/25 03:06:50;;;;;;;25.25;13.80;;;3.80;99.90;;;;;;5012513;28;20026;-77
2020/12/25 03:09:16;;;;;;;23.60;14.40;;;3.80;99.90;;;;;;5011025;28;20026;-77
2020/12/25 03:11:42;;;;;;;22.42;12.02;;;3.80;99.90;;;;;;5012510;28;20045;-78
2020/12/25 03:14:09;;;;;;;22.80;12.30;;;3.80;99.90;;;;;;5027163;28;20038;-78
2020/12/25 03:16:35;;;;;;;24.38;13.27;;;3.80;99.90;;;;;;5012275;28;20038;-78
2020/12/25 03:19:01;;;;;;;20.70;11.88;;;3.70;99.90;;;;;;5012097;28;20034;-78
2020/12/25 03:21:27;;;;;;;18.73;11.60;;;3.80;99.90;;;;;;5011141;28;20046;-77
2020/12/25 03:23:53;;;;;;;26.13;11.85;;;3.80;99.90;;;;;;5012343;28;20029;-77
2020/12/25 03:26:20;;;;;;;21.15;11.55;;;3.70;99.90;;;;;;5011679;28;20045;-78
2020/12/25 03:28:46;;;;;;;17.10;8.63;;;3.80;99.90;;;;;;5012494;28;20030;-77
2020/12/25 03:31:12;;;;;;;17.15;10.10;;;3.70;99.90;;;;;;5011255;28;20057;-78
2020/12/25 03:33:38;;;;;;;15.52;9.35;;;3.80;99.90;;;;;;5012328;28;20034;-79
2020/12/25 03:36:04;;;;;;;18.05;8.73;;;3.90;99.90;;;;;;5012053;28;20022;-77
2020/12/25 03:38:31;;;;;;;14.48;8.55;;;3.80;99.90;;;;;;5012320;28;20026;-77
2020/12/25 03:41:01;;;;;;;11.07;7.57;;;3.80;99.90;;;;;;5011956;28;20490;-77
2020/12/25 03:43:27;;;;;;;10.80;7.15;;;3.80;99.90;;;;;;5012103;28;20033;-77
2020/12/25 03:45:53;;;;;;;9.75;5.80;;;3.80;99.90;;;;;;5012036;28;20039;-77
2020/12/25 03:48:19;;;;;;;7.75;5.05;;;3.80;99.90;;;;;;5012135;28;20026;-77
2020/12/25 03:50:45;;;;;;;9.07;5.95;;;3.80;99.90;;;;;;5012053;28;20065;-77
2020/12/25 03:53:11;;;;;;;7.03;4.97;;;3.80;99.90;;;;;;5011921;28;20026;-77
2020/12/25 03:55:38;;;;;;;10.15;5.82;;;3.80;99.90;;;;;;5015644;28;20459;-77
2020/12/25 03:58:04;;;;;;;8.75;5.00;;;3.80;99.90;;;;;;5015272;28;20037;-78
2020/12/25 04:00:31;;;;;;;5.95;4.10;;;3.80;99.90;;;;;;5015361;28;20049;-78
2020/12/25 04:02:57;;;;;;;6.03;3.85;;;3.80;99.90;;;;;;5015416;28;20356;-77
2020/12/25 04:05:24;;;;;;;6.97;3.80;;;3.70;99.90;;;;;;5014798;28;20060;-78
2020/12/25 04:07:50;;;;;;;6.60;3.47;;;3.80;99.90;;;;;;5015085;28;20045;-79
2020/12/25 04:10:16;;;;;;;5.05;3.28;;;3.70;99.90;;;;;;5015244;28;20030;-78
2020/12/25 04:12:43;;;;;;;4.50;2.70;;;3.70;99.90;;;;;;5014909;28;20034;-78
2020/12/25 04:15:09;;;;;;;6.40;2.80;;;3.80;99.90;;;;;;5014790;28;20026;-77
2020/12/25 04:17:35;;;;;;;4.63;2.63;;;3.70;99.90;;;;;;5014884;28;20026;-77
2020/12/25 04:20:02;;;;;;;4.60;3.22;;;3.70;99.90;;;;;;5014798;28;20045;-79
2020/12/25 04:22:28;;;;;;;5.18;3.03;;;3.70;99.90;;;;;;5015373;28;20030;-77
2020/12/25 04:24:54;;;;;;;4.38;2.88;;;3.70;99.90;;;;;;5014654;28;20037;-78
2020/12/25 04:27:20;;;;;;;6.13;3.58;;;3.70;99.90;;;;;;5014910;28;20392;-77
2020/12/25 04:29:46;;;;;;;4.57;2.92;;;3.70;99.90;;;;;;5014972;28;20030;-77
2020/12/25 04:32:12;;;;;;;5.22;2.88;;;3.80;99.90;;;;;;5014337;28;20056;-78
2020/12/25 04:34:39;;;;;;;5.95;3.42;;;3.70;99.90;;;;;;5016293;28;20041;-78
2020/12/25 04:37:05;;;;;;;5.78;3.80;;;3.80;99.90;;;;;;5023909;28;20033;-78
2020/12/25 04:39:33;;;;;;;4.30;3.25;;;3.80;99.90;;;;;;5015211;28;20486;-78
2020/12/25 04:41:59;;;;;;;7.68;3.92;;;3.80;99.90;;;;;;5018865;28;20034;-78
2020/12/25 04:44:26;;;;;;;7.00;3.60;;;3.80;99.90;;;;;;5014240;28;20132;-78
2020/12/25 04:46:52;;;;;;;10.40;4.57;;;3.80;99.90;;;;;;5014687;28;20029;-78
2020/12/25 04:49:19;;;;;;;8.82;5.25;;;3.80;99.90;;;;;;5014569;28;20498;-78
2020/12/25 04:51:45;;;;;;;8.88;4.93;;;3.80;99.90;;;;;;5014467;28;20471;-77
2020/12/25 04:54:12;;;;;;;8.32;5.88;;;3.80;99.90;;;;;;5013976;28;20045;-78
2020/12/25 04:56:38;;;;;;;11.38;5.28;;;3.80;99.90;;;;;;5014369;28;20037;-78
2020/12/25 04:59:04;;;;;;;8.85;5.18;;;3.80;99.90;;;;;;5015506;28;20026;-78
2020/12/25 05:01:30;;;;;;;10.05;5.13;;;3.80;99.90;;;;;;5015097;28;20034;-78
2020/12/25 05:03:57;;;;;;;7.82;5.50;;;3.80;99.90;;;;;;5014854;28;20034;-78
2020/12/25 05:06:24;;;;;;;7.65;5.43;;;3.80;99.90;;;;;;5013772;28;20042;-79
2020/12/25 05:08:51;;;;;;;10.90;5.03;;;3.80;99.90;;;;;;5014129;28;20033;-78
2020/12/25 05:11:20;;;;;;;10.77;5.32;;;3.80;99.90;;;;;;5014939;28;20045;-78
2020/12/25 05:13:49;;;;;;;11.15;5.35;;;3.80;99.90;;;;;;5016555;28;20034;-77
2020/12/25 05:16:16;;;;;;;11.15;5.53;;;3.80;99.90;;;;;;5015372;28;20376;-77
2020/12/25 05:18:45;;;;;;;10.98;6.10;;;3.70;99.90;;;;;;5015886;28;20494;-77
2020/12/25 05:21:14;;;;;;;9.38;5.50;;;3.80;99.90;;;;;;5020611;28;20479;-77
2020/12/25 05:23:41;;;;;;;8.18;5.10;;;3.80;99.90;;;;;;5029375;28;20038;-77
2020/12/25 05:26:09;;;;;;;8.32;5.35;;;3.80;99.90;;;;;;5015350;28;20073;-78
2020/12/25 05:28:44;;;;;;;8.90;4.70;;;3.70;99.90;;;;;;5013756;28;20041;-77
2020/12/25 05:31:10;;;;;;;9.27;4.78;;;3.70;99.90;;;;;;5013568;28;20034;-77
2020/12/25 05:33:38;;;;;;;10.65;6.07;;;3.70;99.90;;;;;;5013720;28;20041;-78
2020/12/25 05:36:12;;;;;;;9.30;5.88;;;3.70;99.90;;;;;;5013898;28;20033;-78
2020/12/25 05:38:40;;;;;;;7.45;5.13;;;3.70;99.90;;;;;;5015798;28;20034;-77
2020/12/25 05:41:07;;;;;;;8.25;5.25;;;3.80;99.90;;;;;;5037348;28;20378;-78
2020/12/25 05:43:34;;;;;;;8.43;4.38;;;3.80;99.90;;;;;;5013940;28;20042;-77
2020/12/25 05:46:00;;;;;;;7.93;5.15;;;3.80;99.90;;;;;;5015182;28;20030;-77
2020/12/25 05:48:27;;;;;;;7.80;5.13;;;3.80;99.90;;;;;;5017054;28;20048;-78
2020/12/25 05:50:53;;;;;;;9.43;4.60;;;3.80;99.90;;;;;;5015164;28;20045;-78
2020/12/25 05:53:20;;;;;;;8.20;5.22;;;3.80;99.90;;;;;;5013223;28;20045;-78
2020/12/25 05:55:46;;;;;;;9.15;4.90;;;3.80;99.90;;;;;;5013376;28;20026;-78
2020/12/25 05:58:14;;;;;;;8.35;4.80;;;3.80;99.90;;;;;;5012376;28;20030;-77
2020/12/25 06:00:42;;;;;;;8.95;5.70;;;3.80;99.90;;;;;;5013483;28;20034;-77
2020/12/25 06:03:13;;;;;;;7.63;4.72;;;3.80;99.90;;;;;;5012656;28;20041;-78
2020/12/25 06:05:41;;;;;;;6.60;4.38;;;3.80;99.90;;;;;;5012075;28;20034;-77
2020/12/25 06:08:49;;;;;;;6.32;4.50;;;3.80;99.90;;;;;;5013013;28;20026;-77
2020/12/25 06:11:16;;;;;;;6.97;4.18;;;3.70;99.90;;;;;;4948791;29;20497;-77
2020/12/25 06:13:43;;;;;;;8.80;4.50;;;3.70;99.90;;;;;;4940232;29;20495;-77
2020/12/25 06:16:20;;;;;;;6.72;4.57;;;3.80;99.90;;;;;;4949156;28;20432;-77
2020/12/25 06:19:06;;;;;;;8.25;4.45;;;3.80;99.90;;;;;;4932331;29;20525;-77
2020/12/25 06:21:56;;;;;;;6.90;4.22;;;3.80;99.90;;;;;;4935391;29;20055;-77
2020/12/25 06:24:29;;;;;;;8.25;4.75;;;3.90;99.90;;;;;;4951133;29;20279;-77
2020/12/25 06:26:59;;;;;;;6.75;4.05;;;3.80;99.90;;;;;;4951101;29;20059;-77
2020/12/25 06:29:27;;;;;;;5.83;3.93;;;3.80;99.90;;;;;;4933753;29;20055;-77
2020/12/25 06:31:55;;;;;;;7.75;4.07;;;3.90;99.90;;;;;;4933855;29;20047;-77
2020/12/25 06:34:22;;;;;;;13.02;4.65;;;3.90;99.90;;;;;;4935137;29;20398;-77
2020/12/25 06:36:48;;;;;;;8.55;4.30;;;3.80;99.90;;;;;;4952257;29;20131;-77
2020/12/25 06:39:20;;;;;;;6.80;4.25;;;3.90;99.90;;;;;;4934199;29;20035;-77
2020/12/25 06:41:48;;;;;;;7.30;3.97;;;3.80;99.90;;;;;;4972092;28;20049;-76
2020/12/25 06:44:16;;;;;;;7.78;4.30;;;3.80;99.90;;;;;;5012127;28;20034;-77
2020/12/25 06:46:50;;;;;;;9.60;4.28;;;3.80;99.90;;;;;;5012675;28;20403;-76
2020/12/25 06:49:20;;;;;;;7.93;4.65;;;3.80;99.90;;;;;;5011829;28;20364;-77
2020/12/25 06:51:47;;;;;;;8.45;4.60;;;3.80;99.90;;;;;;5012175;28;20490;-77
2020/12/25 06:54:24;;;;;;;7.82;4.20;;;3.80;99.90;;;;;;5031370;28;20033;-76
2020/12/25 06:56:54;;;;;;;8.35;3.88;;;3.80;99.90;;;;;;5013308;28;20041;-76
2020/12/25 06:59:22;;;;;;;6.35;4.25;;;3.80;99.90;;;;;;5012518;28;20030;-76
2020/12/25 07:01:52;;;;;;;7.15;4.53;;;3.80;99.90;;;;;;5012312;28;20034;-74
2020/12/25 07:04:32;;;;;;;6.95;4.68;;;3.80;99.90;;;;;;5011913;28;20034;-74
2020/12/25 07:07:02;;;;;;;6.95;5.15;;;3.80;99.90;;;;;;5012490;28;20033;-74
2020/12/25 07:09:42;;;;;;;8.00;4.05;;;3.80;99.90;;;;;;5012183;28;20129;-74
2020/12/25 07:12:19;;;;;;;4.73;3.00;;;3.80;99.90;;;;;;5012210;28;20479;-75
2020/12/25 07:14:46;;;;;;;7.25;3.95;;;3.80;99.90;;;;;;5012663;28;20048;-75
2020/12/25 07:17:12;;;;;;;6.80;3.88;;;3.80;99.90;;;;;;5011909;28;20033;-74
2020/12/25 07:19:45;;;;;;;6.97;4.03;;;3.80;99.90;;;;;;5025377;28;20041;-76
2020/12/25 07:22:11;;;;;;;6.13;3.88;;;3.80;99.90;;;;;;5011727;28;20383;-76
2020/12/25 07:24:41;;;;;;;5.97;3.90;;;3.80;99.90;;;;;;5012322;28;20025;-75
2020/12/25 07:27:09;;;;;;;6.05;3.55;;;3.80;99.90;;;;;;5012375;28;20065;-76
2020/12/25 07:29:36;;;;;;;10.90;4.05;;;3.80;99.90;;;;;;5026628;28;20045;-73
2020/12/25 07:32:03;;;;;;;5.97;3.75;;;3.80;99.90;;;;;;5018697;28;20387;-76
2020/12/25 07:34:29;;;;;;;7.70;3.30;;;3.80;99.90;;;;;;5016181;28;20387;-77
2020/12/25 07:36:56;;;;;;;7.32;3.95;;;3.80;99.90;;;;;;5016217;28;20034;-73
2020/12/25 07:39:25;;;;;;;7.75;3.40;;;3.80;99.90;;;;;;5015194;28;20030;-73
2020/12/25 07:41:51;;;;;;;5.47;3.03;;;3.80;99.90;;;;;;5015612;28;20032;-76
2020/12/25 07:44:18;;;;;;;6.00;4.00;;;3.80;99.90;;;;;;5015337;28;20036;-74
2020/12/25 07:46:45;;;;;;;6.63;3.40;;;3.80;99.90;;;;;;5013621;28;20049;-73
2020/12/25 07:49:12;;;;;;;6.22;3.70;;;3.90;99.90;;;;;;5015500;28;20036;-74
2020/12/25 07:51:38;;;;;;;8.70;5.13;;;3.80;99.90;;;;;;5015104;28;20064;-73
2020/12/25 07:54:05;;;;;;;9.18;4.35;;;3.70;99.90;;;;;;5015320;28;20033;-74
2020/12/25 07:56:35;;;;;;;6.47;3.65;;;3.70;99.90;;;;;;5015373;28;20030;-75
2020/12/25 07:59:03;;;;;;;6.18;3.20;;;3.70;99.90;;;;;;5015281;28;20464;-74
2020/12/25 08:01:32;;;;;;;6.95;4.10;;;3.70;99.90;;;;;;5015190;28;20048;-73
2020/12/25 08:04:03;;;;;;;8.10;5.10;;;3.80;99.90;;;;;;5015013;28;20094;-73
2020/12/25 08:06:32;;;;;;;7.22;4.13;;;3.70;99.90;;;;;;5015332;28;20042;-75
2020/12/25 08:08:58;;;;;;;6.93;4.07;;;3.70;99.90;;;;;;5015031;28;20038;-75
2020/12/25 08:11:29;;;;;;;7.70;4.45;;;3.70;99.90;;;;;;5014721;28;20391;-76
2020/12/25 08:14:02;;;;;;;6.15;3.80;;;3.80;99.90;;;;;;5015777;28;20456;-75
2020/12/25 08:16:30;;;;;;;7.45;4.05;;;3.80;99.90;;;;;;5015032;28;20033;-73
2020/12/25 08:18:57;;;;;;;6.35;3.60;;;3.80;99.90;;;;;;5015094;28;20030;-74
2020/12/25 08:21:39;;;;;;;8.73;2.72;;;3.70;99.90;;;;;;5014977;28;20060;-74
2020/12/25 08:24:06;;;;;;;8.18;3.40;;;3.70;99.90;;;;;;5014975;28;20387;-78
2020/12/25 08:26:35;;;;;;;6.22;3.35;;;3.70;99.90;;;;;;5015059;28;20056;-74
2020/12/25 08:29:01;;;;;;;6.22;3.60;;;3.70;99.90;;;;;;5015427;28;20026;-76
2020/12/25 08:31:40;;;;;;;4.70;2.80;;;3.70;99.90;;;;;;5014774;28;20045;-73
2020/12/25 08:34:13;;;;;;;4.50;2.55;;;3.70;99.90;;;;;;5014263;28;20045;-74
2020/12/25 08:36:41;;;;;;;4.65;3.03;;;3.70;99.90;;;;;;5014695;28;20034;-74
2020/12/25 08:39:08;;;;;;;6.57;3.95;;;3.70;99.90;;;;;;5014384;28;20037;-74
2020/12/25 08:41:35;;;;;;;16.02;8.55;;;3.70;99.90;;;;;;5013613;28;20038;-74
2020/12/25 08:44:11;;;;;;;9.60;4.78;;;3.70;99.90;;;;;;5022650;28;20494;-75
2020/12/25 08:46:38;;;;;;;5.93;4.10;;;3.80;99.90;;;;;;5016033;28;20479;-74
2020/12/25 08:49:05;;;;;;;6.40;2.85;;;3.80;99.90;;;;;;5014529;28;20030;-74
2020/12/25 08:51:35;;;;;;;6.85;2.97;;;3.80;99.90;;;;;;5026521;28;20514;-74
2020/12/25 08:54:01;;;;;;;5.85;3.25;;;3.80;99.90;;;;;;5014726;28;20412;-74
2020/12/25 08:56:28;;;;;;;11.63;4.25;;;3.80;99.90;;;;;;5014503;28;20030;-74
2020/12/25 08:59:07;;;;;;;5.53;2.80;;;3.80;99.90;;;;;;5014329;28;20368;-75
2020/12/25 09:01:37;;;;;;;5.50;3.42;;;3.80;99.90;;;;;;5016371;28;20041;-73
2020/12/25 09:04:04;;;;;;;4.45;2.85;;;3.80;99.90;;;;;;5032295;28;20033;-74
2020/12/25 09:06:30;;;;;;;6.78;3.13;;;3.80;99.90;;;;;;5014191;28;20030;-74
2020/12/25 09:08:57;;;;;;;6.60;3.25;;;3.80;99.90;;;;;;5014542;28;20053;-74
2020/12/25 09:11:25;;;;;;;7.25;2.88;;;3.80;99.90;;;;;;5013843;28;20254;-74
2020/12/25 09:13:52;;;;;;;4.97;3.13;;;3.80;99.90;;;;;;5023836;28;20029;-75
2020/12/25 09:16:19;;;;;;;4.55;2.33;;;3.80;99.90;;;;;;5021443;28;20036;-73
2020/12/25 09:18:49;;;;;;;5.50;2.53;;;3.80;99.90;;;;;;5022337;28;20026;-73
2020/12/25 09:21:17;;;;;;;2.90;1.35;;;3.80;99.90;;;;;;5027439;28;20037;-73
2020/12/25 09:23:44;;;;;;;4.22;2.67;;;3.80;99.90;;;;;;5026244;28;20029;-74
2020/12/25 09:26:11;;;;;;;6.57;2.90;;;3.80;99.90;;;;;;5012579;28;20483;-73
2020/12/25 09:28:38;;;;;;;4.90;2.72;;;3.80;99.90;;;;;;5014084;28;20471;-74
2020/12/25 09:31:09;;;;;;;4.10;2.13;;;3.70;99.90;;;;;;5013176;28;20127;-74
2020/12/25 09:33:36;;;;;;;4.45;2.45;;;3.80;99.90;;;;;;5013899;28;20149;-73
2020/12/25 09:36:05;;;;;;;3.88;2.10;;;3.70;99.90;;;;;;5013653;28;20037;-75
2020/12/25 09:38:31;;;;;;;2.88;1.77;;;3.70;99.90;;;;;;5015909;28;20378;-74
2020/12/25 09:40:58;;;;;;;8.43;2.90;;;3.70;99.90;;;;;;5013342;28;20041;-74
2020/12/25 09:43:26;;;;;;;5.10;1.88;;;3.70;99.90;;;;;;5012582;28;20041;-74
2020/12/25 09:45:52;;;;;;;10.32;3.22;;;3.70;99.90;;;;;;5013126;28;20030;-73
2020/12/25 09:48:18;;;;;;;6.78;2.10;;;3.70;99.90;;;;;;5013061;28;20030;-74
2020/12/25 09:50:44;;;;;;;3.95;2.10;;;3.60;99.90;;;;;;5013066;28;20049;-74
2020/12/25 09:53:11;;;;;;;5.05;2.63;;;3.70;99.90;;;;;;5012711;28;20395;-75
2020/12/25 09:55:39;;;;;;;5.05;2.40;;;3.60;99.90;;;;;;5013305;28;20038;-76
2020/12/25 09:58:06;;;;;;;3.80;2.20;;;3.70;99.90;;;;;;5013261;28;20030;-75
2020/12/25 10:00:33;;;;;;;4.43;1.67;;;3.70;99.90;;;;;;5013280;28;20041;-76
2020/12/25 10:02:59;;;;;;;4.50;1.73;;;3.80;99.90;;;;;;5013396;28;20383;-76
2020/12/25 10:05:26;;;;;;;3.55;2.20;;;3.80;99.90;;;;;;5013658;28;20482;-76
2020/12/25 10:07:52;;;;;;;7.10;3.35;;;3.90;99.90;;;;;;5013049;28;20048;-75
2020/12/25 10:10:23;;;;;;;4.38;2.30;;;4.00;99.90;;;;;;5012743;28;20037;-77
2020/12/25 10:12:50;;;;;;;4.75;2.08;;;4.00;99.90;;;;;;5012641;28;20041;-76
2020/12/25 10:15:17;;;;;;;4.05;2.00;;;4.00;99.90;;;;;;5012592;28;20042;-75
2020/12/25 10:17:44;;;;;;;3.72;1.88;;;4.00;99.90;;;;;;5013057;28;20443;-76
2020/12/25 10:20:11;;;;;;;2.75;1.60;;;4.10;99.90;;;;;;5012624;28;20040;-75
2020/12/25 10:22:37;;;;;;;3.03;1.48;;;4.10;99.90;;;;;;5012738;28;20030;-76
2020/12/25 10:25:04;;;;;;;2.90;1.50;;;4.10;99.90;;;;;;5012385;28;20049;-75
2020/12/25 10:27:31;;;;;;;4.57;1.80;;;4.20;99.90;;;;;;5017275;28;20053;-74
2020/12/25 10:29:57;;;;;;;4.53;1.90;;;4.20;99.90;;;;;;5025723;28;20026;-76
2020/12/25 10:32:24;;;;;;;3.92;1.50;;;4.20;99.90;;;;;;5023094;28;20410;-75
2020/12/25 10:34:50;;;;;;;2.17;1.20;;;4.20;99.90;;;;;;5024010;28;20061;-74
2020/12/25 10:37:16;;;;;;;4.65;3.15;;;4.30;99.90;;;;;;5023177;28;20025;-74
2020/12/25 10:39:42;;;;;;;3.45;1.05;;;4.40;99.90;;;;;;5020873;28;20029;-75
2020/12/25 10:42:10;;;;;;;2.10;1.17;;;4.40;99.90;;;;;;5020479;28;20033;-76
2020/12/25 10:44:37;;;;;;;2.45;1.45;;;4.40;99.90;;;;;;5021564;28;20033;-74
2020/12/25 10:47:04;;;;;;;2.20;1.10;;;4.30;99.90;;;;;;5026591;28;20029;-74
2020/12/25 10:49:30;;;;;;;3.92;1.55;;;4.30;99.90;;;;;;5017061;28;20038;-74
2020/12/25 10:51:56;;;;;;;3.30;1.50;;;4.20;99.90;;;;;;5011865;28;20459;-73
2020/12/25 10:54:23;;;;;;;5.88;1.52;;;4.20;99.90;;;;;;5012303;28;20036;-74
2020/12/25 10:56:50;;;;;;;2.03;1.40;;;4.30;99.90;;;;;;5012500;28;20034;-74
2020/12/25 10:59:16;;;;;;;3.08;1.30;;;4.40;99.90;;;;;;5015870;28;20510;-74
2020/12/25 11:01:46;;;;;;;1.95;1.00;;;4.50;99.90;;;;;;5012116;28;20041;-74
2020/12/25 11:04:13;;;;;;;2.75;1.27;;;4.60;99.90;;;;;;5014331;28;20034;-76
2020/12/25 11:06:40;;;;;;;3.60;1.77;;;4.70;99.90;;;;;;5018435;28;20037;-74
2020/12/25 11:09:08;;;;;;;4.38;1.65;;;4.90;99.90;;;;;;5016655;28;20363;-74
2020/12/25 11:11:37;;;;;;;4.75;1.45;;;5.00;99.90;;;;;;5016052;28;20045;-74
2020/12/25 11:14:03;;;;;;;4.07;1.45;;;5.20;99.90;;;;;;5016441;28;20049;-75
2020/12/25 11:16:34;;;;;;;2.78;1.30;;;5.30;99.90;;;;;;5016063;28;20029;-75
2020/12/25 11:19:01;;;;;;;2.27;1.17;;;5.20;99.90;;;;;;5016136;28;20045;-74
2020/12/25 11:21:30;;;;;;;3.20;1.58;;;5.00;99.90;;;;;;5015682;28;20038;-75
2020/12/25 11:23:58;;;;;;;2.80;1.20;;;5.00;99.90;;;;;;5016546;28;20448;-75
2020/12/25 11:26:51;;;;;;;5.78;1.40;;;4.80;99.90;;;;;;5015574;28;20053;-74
2020/12/25 11:29:17;;;;;;;4.00;2.13;;;4.80;99.90;;;;;;5013612;28;20483;-73
2020/12/25 11:31:44;;;;;;;2.33;1.30;;;4.80;99.90;;;;;;5015464;28;20053;-74
2020/12/25 11:34:11;;;;;;;2.65;1.25;;;4.90;99.90;;;;;;5015796;28;20040;-74
2020/12/25 11:36:37;;;;;;;6.05;4.03;;;5.10;99.90;;;;;;5019981;28;20034;-73
2020/12/25 11:39:05;;;;;;;5.03;1.70;;;5.10;99.90;;;;;;5016227;28;20030;-73
2020/12/25 11:41:31;;;;;;;2.90;1.23;;;5.00;99.90;;;;;;5022671;28;20029;-75
2020/12/25 11:43:58;;;;;;;7.00;6.40;;;5.00;99.90;;;;;;5021415;28;20034;-74
2020/12/25 11:46:24;;;;;;;2.05;1.55;;;4.90;99.90;;;;;;5015946;28;20030;-74
2020/12/25 11:48:52;;;;;;;2.15;1.50;;;4.90;99.90;;;;;;5016561;28;20033;-73
2020/12/25 11:51:23;;;;;;;2.05;1.17;;;4.70;99.90;;;;;;5017771;28;20045;-74
2020/12/25 11:54:11;;;;;;;3.22;1.60;;;4.70;99.90;;;;;;5018667;28;20049;-75
2020/12/25 11:56:41;;;;;;;3.85;1.50;;;4.80;99.90;;;;;;5019252;28;20052;-75
2020/12/25 11:59:08;;;;;;;3.30;1.85;;;4.60;99.90;;;;;;5029363;28;20030;-72
2020/12/25 12:01:37;;;;;;;2.75;1.70;;;4.60;99.90;;;;;;5023574;28;20042;-73
2020/12/25 12:04:12;;;;;;;4.07;1.52;;;4.50;99.90;;;;;;5015845;28;20034;-74
2020/12/25 12:06:39;;;;;;;2.55;1.30;;;4.50;99.90;;;;;;5034345;28;20033;-74
2020/12/25 12:09:05;;;;;;;3.92;1.35;;;4.60;99.90;;;;;;5020630;28;20352;-75
2020/12/25 12:11:32;;;;;;;3.55;1.65;;;4.70;99.90;;;;;;5014989;28;20038;-73
2020/12/25 12:14:00;;;;;;;3.00;1.33;;;4.80;99.90;;;;;;5027915;28;20037;-74
2020/12/25 12:16:26;;;;;;;2.28;1.60;;;4.80;99.90;;;;;;5017121;28;20060;-73
2020/12/25 12:18:53;;;;;;;3.13;1.58;;;4.80;99.90;;;;;;5016054;28;20041;-74
2020/12/25 12:21:20;;;;;;;9.57;5.43;;;4.90;99.90;;;;;;5014525;28;20038;-74
2020/12/25 12:23:47;;;;;;;9.20;5.15;;;4.90;99.90;;;;;;5014607;28;20049;-74
2020/12/25 12:26:13;;;;;;;5.75;2.75;;;4.70;99.90;;;;;;5014825;28;20057;-78
2020/12/25 12:28:40;;;;;;;3.30;1.20;;;4.70;99.90;;;;;;5015404;28;20033;-74
2020/12/25 12:31:06;;;;;;;3.95;1.23;;;4.80;99.90;;;;;;5034575;28;20033;-73
2020/12/25 12:33:32;;;;;;;2.40;0.98;;;4.80;99.90;;;;;;5014730;28;20029;-73
2020/12/25 12:35:58;;;;;;;4.45;1.70;;;4.70;99.90;;;;;;5014583;28;20034;-73
2020/12/25 12:38:25;;;;;;;2.67;1.13;;;4.60;99.90;;;;;;5014579;28;20045;-73
2020/12/25 12:40:51;;;;;;;3.90;2.28;;;4.60;99.90;;;;;;5015039;28;20383;-73
2020/12/25 12:43:17;;;;;;;3.97;2.10;;;4.50;99.90;;;;;;5013545;28;20046;-74
2020/12/25 12:45:44;;;;;;;2.28;1.23;;;4.40;99.90;;;;;;5025381;28;20026;-73
2020/12/25 12:48:10;;;;;;;2.42;1.13;;;4.40;99.90;;;;;;5015949;28;20036;-74
2020/12/25 12:50:36;;;;;;;1.77;0.85;;;4.50;99.90;;;;;;5011965;28;20030;-73
2020/12/25 12:53:03;;;;;;;2.78;1.35;;;4.60;99.90;;;;;;5013464;28;20069;-72
2020/12/25 12:55:29;;;;;;;2.72;0.90;;;4.70;99.90;;;;;;5014272;28;20471;-73